Terminal Aerodrome Forecast
Issued by NWS Cleveland, OH

Home | Current Version | Previous Version | Text Only | Print | Product List | Glossary Off
Versions: 1 2 3 4 5 6 7 8 9 10 11 12 13 14

525
FTUS41 KCLE 222326
TAFYNG
TAF
KYNG 222326Z 2300/2324 36006KT P6SM BKN200
     FM230400 00000KT P6SM SCT250
     FM232200 02006KT P6SM FEW250=

USA.gov is the U.S. government's official web portal to all federal, state and local government web resources and services.